Time;durP1;ratioP1;P1;durP2;ratioP2;P2;SDS_P1;SDS_P2;PMS_P1;PMS_P2;Temp;Humidity;BMP_temperature;BMP_pressure;BME280_temperature;BME280_humidity;BME280_pressure;Samples;Min_cycle;Max_cycle;Signal;HPM_P1;HPM_P2
2023/09/12 00:02:23;;;;;;;25.85;17.15;;;20.00;99.90;;;;;;4986147;28;20022;-83
2023/09/12 00:04:56;;;;;;;28.77;17.52;;;20.00;99.90;;;;;;4988605;28;20030;-83
2023/09/12 00:07:22;;;;;;;;;;;19.90;99.90;;;;;;4991812;28;20019;-82
2023/09/12 00:09:47;;;;;;;26.05;17.23;;;20.00;99.90;;;;;;4990344;28;19960;-84
2023/09/12 00:12:14;;;;;;;27.83;17.13;;;20.00;99.90;;;;;;4989213;28;20026;-83
2023/09/12 00:14:40;;;;;;;24.27;15.48;;;19.90;99.90;;;;;;4987905;28;20025;-83
2023/09/12 00:17:06;;;;;;;82.05;19.05;;;20.00;99.90;;;;;;4990701;28;20109;-83
2023/09/12 00:19:31;;;;;;;24.58;16.50;;;20.00;99.90;;;;;;4988305;28;20023;-82
2023/09/12 00:21:57;;;;;;;24.05;14.02;;;19.90;99.90;;;;;;4987546;28;20070;-82
2023/09/12 00:24:25;;;;;;;21.88;15.70;;;19.70;99.90;;;;;;4983411;28;20088;-84
2023/09/12 00:26:50;;;;;;;37.13;18.17;;;19.60;99.90;;;;;;4988802;28;20489;-88
2023/09/12 00:29:16;;;;;;;33.55;17.75;;;19.50;99.90;;;;;;4989714;28;20247;-87
2023/09/12 00:31:42;;;;;;;42.80;16.48;;;19.50;99.90;;;;;;4990764;28;20100;-86
2023/09/12 00:34:07;;;;;;;35.67;16.05;;;19.50;99.90;;;;;;4988173;28;20061;-85
2023/09/12 00:36:33;;;;;;;28.98;16.25;;;19.50;99.90;;;;;;4990642;28;20037;-84
2023/09/12 00:38:58;;;;;;;23.92;15.80;;;19.50;99.90;;;;;;4988804;28;20977;-83
2023/09/12 00:41:24;;;;;;;26.00;15.75;;;19.50;99.90;;;;;;4989845;28;20054;-84
2023/09/12 00:43:52;;;;;;;21.08;14.23;;;19.40;99.90;;;;;;4988558;28;20526;-84
2023/09/12 00:46:20;;;;;;;22.95;15.38;;;19.40;99.90;;;;;;5000580;28;20060;-84
2023/09/12 00:48:47;;;;;;;28.92;15.00;;;19.40;99.90;;;;;;4989543;28;20025;-84
2023/09/12 00:51:15;;;;;;;23.38;14.52;;;19.40;99.90;;;;;;4987481;28;20019;-84
2023/09/12 00:53:41;;;;;;;29.08;15.52;;;19.30;99.90;;;;;;4986659;28;20030;-85
2023/09/12 00:56:07;;;;;;;25.63;14.75;;;19.30;99.90;;;;;;4987698;28;20055;-82
2023/09/12 00:58:35;;;;;;;24.67;15.68;;;19.30;99.90;;;;;;4988812;28;20054;-84
2023/09/12 01:01:02;;;;;;;25.40;14.70;;;19.30;99.90;;;;;;4986854;28;20018;-84
2023/09/12 01:03:27;;;;;;;21.98;13.65;;;19.30;99.90;;;;;;4983931;28;20107;-84
2023/09/12 01:05:56;;;;;;;29.10;13.48;;;19.30;99.90;;;;;;4988456;28;20035;-83
2023/09/12 01:08:22;;;;;;;24.95;13.18;;;19.40;99.90;;;;;;4987279;28;20483;-84
2023/09/12 01:10:49;;;;;;;28.13;13.73;;;19.40;99.90;;;;;;4986231;28;20140;-84
2023/09/12 01:13:15;;;;;;;21.00;13.93;;;19.50;99.90;;;;;;4985500;28;20030;-84
2023/09/12 01:15:43;;;;;;;25.40;13.50;;;19.50;99.90;;;;;;4988465;28;20438;-83
2023/09/12 01:18:09;;;;;;;25.15;13.73;;;19.50;99.90;;;;;;4985657;28;20390;-84
2023/09/12 01:20:40;;;;;;;25.70;14.38;;;19.50;99.90;;;;;;4987789;28;20030;-83
2023/09/12 01:23:53;;;;;;;25.88;14.43;;;19.50;99.90;;;;;;4986932;28;20057;-84
2023/09/12 01:26:42;;;;;;;24.25;14.57;;;19.60;99.90;;;;;;4983753;28;20114;-83
2023/09/12 01:29:09;;;;;;;23.48;14.80;;;19.60;99.90;;;;;;4982922;28;20030;-83
2023/09/12 01:31:37;;;;;;;23.08;13.70;;;19.60;99.90;;;;;;5005638;28;20022;-84
2023/09/12 01:34:12;;;;;;;23.25;13.93;;;19.60;99.90;;;;;;4996992;28;20025;-84
2023/09/12 01:36:40;;;;;;;25.85;14.05;;;19.50;99.90;;;;;;5003526;28;20018;-84
2023/09/12 01:39:06;;;;;;;19.65;13.15;;;19.50;99.90;;;;;;5010194;28;20057;-83
2023/09/12 01:41:36;;;;;;;25.52;13.00;;;19.50;99.90;;;;;;5011746;28;20022;-84
2023/09/12 01:44:04;;;;;;;30.98;15.23;;;19.40;99.90;;;;;;5016641;28;20031;-82
2023/09/12 01:46:31;;;;;;;31.10;14.25;;;19.50;99.90;;;;;;4989656;28;20019;-82
2023/09/12 01:48:58;;;;;;;24.42;14.77;;;19.50;99.90;;;;;;4990385;28;20030;-82
2023/09/12 01:51:25;;;;;;;19.00;12.60;;;19.50;99.90;;;;;;4990051;28;20458;-83
2023/09/12 01:53:50;;;;;;;19.48;13.05;;;19.60;99.90;;;;;;4987577;28;20045;-85
2023/09/12 01:56:20;;;;;;;21.42;13.73;;;19.60;99.90;;;;;;4985822;28;20278;-83
2023/09/12 01:58:46;;;;;;;27.38;13.32;;;19.60;99.90;;;;;;4984401;28;20022;-83
2023/09/12 02:01:12;;;;;;;18.42;12.65;;;19.60;99.90;;;;;;4987913;28;20022;-83
2023/09/12 02:03:37;;;;;;;20.35;13.55;;;19.60;99.90;;;;;;4984435;28;20172;-83
2023/09/12 02:06:03;;;;;;;23.80;13.80;;;19.50;99.90;;;;;;4985968;28;20033;-82
2023/09/12 02:08:28;;;;;;;20.08;12.70;;;19.50;99.90;;;;;;4987513;28;20023;-82
2023/09/12 02:10:54;;;;;;;31.67;13.80;;;19.50;99.90;;;;;;4972899;28;20019;-83
2023/09/12 02:13:20;;;;;;;23.92;13.40;;;19.60;99.90;;;;;;4987037;28;20037;-83
2023/09/12 02:15:46;;;;;;;26.27;14.13;;;19.70;99.90;;;;;;4984547;28;20026;-83
2023/09/12 02:18:11;;;;;;;21.50;14.52;;;19.70;99.90;;;;;;4990088;28;20026;-82
2023/09/12 02:20:44;;;;;;;22.75;14.95;;;19.70;99.90;;;;;;4987163;28;20057;-82
2023/09/12 02:23:10;;;;;;;;;;;19.60;99.90;;;;;;4987543;28;20463;-82
2023/09/12 02:25:35;;;;;;;31.02;14.43;;;19.50;99.90;;;;;;4982109;28;19913;-83
2023/09/12 02:28:01;;;;;;;23.92;14.50;;;19.50;99.90;;;;;;4984925;28;20073;-82
2023/09/12 02:30:26;;;;;;;30.33;14.90;;;19.60;99.90;;;;;;4986154;28;20034;-82
2023/09/12 02:32:54;;;;;;;30.20;16.67;;;19.50;99.90;;;;;;4987080;28;20116;-83
2023/09/12 02:35:20;;;;;;;30.00;15.65;;;19.50;99.90;;;;;;4986351;28;20073;-82
2023/09/12 02:37:45;;;;;;;30.10;16.17;;;19.60;99.90;;;;;;4986559;28;20026;-83
2023/09/12 02:40:11;;;;;;;28.15;14.60;;;19.60;99.90;;;;;;4985766;28;20376;-82
2023/09/12 02:42:37;;;;;;;26.73;15.43;;;19.60;99.90;;;;;;4983920;28;20125;-83
2023/09/12 02:45:04;;;;;;;31.95;15.02;;;19.50;99.90;;;;;;4986542;28;20030;-82
2023/09/12 02:47:29;;;;;;;25.63;15.13;;;19.60;99.90;;;;;;5004449;28;20026;-82
2023/09/12 02:49:55;;;;;;;28.38;15.30;;;19.60;99.90;;;;;;4990691;28;20037;-83
2023/09/12 02:52:23;;;;;;;26.30;14.93;;;19.60;99.90;;;;;;4982754;28;20548;-83
2023/09/12 02:54:48;;;;;;;25.30;15.27;;;19.60;99.90;;;;;;4987876;28;20110;-83
2023/09/12 02:57:14;;;;;;;23.20;14.57;;;19.70;99.90;;;;;;4984201;28;20148;-83
2023/09/12 02:59:40;;;;;;;29.67;15.77;;;19.60;99.90;;;;;;4984232;28;20018;-83
2023/09/12 03:02:05;;;;;;;22.45;14.15;;;19.50;99.90;;;;;;4982260;28;20100;-83
2023/09/12 03:04:31;;;;;;;27.30;14.90;;;19.50;99.90;;;;;;4982777;28;20030;-83
2023/09/12 03:06:56;;;;;;;29.92;15.68;;;19.50;99.90;;;;;;4984659;28;20462;-83
2023/09/12 03:09:23;;;;;;;26.08;16.00;;;19.40;99.90;;;;;;4984853;28;20419;-82
2023/09/12 03:11:49;;;;;;;24.67;14.75;;;19.40;99.90;;;;;;4984420;28;20118;-85
2023/09/12 03:14:15;;;;;;;29.60;14.98;;;19.40;99.90;;;;;;4981907;28;20023;-82
2023/09/12 03:16:40;;;;;;;40.70;18.35;;;19.50;99.90;;;;;;4984704;28;20052;-82
2023/09/12 03:19:06;;;;;;;26.45;18.10;;;19.50;99.90;;;;;;4982585;28;20541;-83
2023/09/12 03:21:34;;;;;;;28.98;17.70;;;19.50;99.90;;;;;;4983992;28;20080;-82
2023/09/12 03:24:00;;;;;;;29.85;15.23;;;19.50;99.90;;;;;;4986560;28;20033;-83
2023/09/12 03:26:26;;;;;;;25.35;14.48;;;19.60;99.90;;;;;;4984928;28;20027;-83
2023/09/12 03:28:52;;;;;;;28.13;14.82;;;19.60;99.90;;;;;;4983111;28;20112;-82
2023/09/12 03:31:18;;;;;;;30.38;15.90;;;19.70;99.90;;;;;;4984778;28;20483;-83
2023/09/12 03:33:49;;;;;;;24.10;16.83;;;19.70;99.90;;;;;;4983705;28;20117;-83
2023/09/12 03:36:15;;;;;;;28.95;16.70;;;19.60;99.90;;;;;;4989439;28;20577;-83
2023/09/12 03:38:40;;;;;;;25.63;14.88;;;19.70;99.90;;;;;;4989244;28;20045;-83
2023/09/12 03:41:06;;;;;;;31.40;16.48;;;19.70;99.90;;;;;;4986707;28;20026;-83
2023/09/12 03:43:33;;;;;;;25.40;14.88;;;19.70;99.90;;;;;;4988384;28;20343;-83
2023/09/12 03:45:59;;;;;;;33.80;17.83;;;19.60;99.90;;;;;;4986290;28;20409;-83
2023/09/12 03:48:24;;;;;;;25.92;15.07;;;19.60;99.90;;;;;;4985654;28;20031;-82
2023/09/12 03:50:50;;;;;;;29.08;15.13;;;19.50;99.90;;;;;;4990344;28;20023;-83
2023/09/12 03:53:16;;;;;;;31.40;16.98;;;19.50;99.90;;;;;;4989041;28;20101;-82
2023/09/12 03:55:42;;;;;;;22.20;14.25;;;19.50;99.90;;;;;;4987905;28;20105;-82
2023/09/12 03:58:08;;;;;;;30.58;15.18;;;19.50;99.90;;;;;;4984622;28;20364;-81
2023/09/12 04:00:33;;;;;;;30.45;17.30;;;19.50;99.90;;;;;;4986570;28;20041;-81
2023/09/12 04:02:59;;;;;;;22.25;16.23;;;19.40;99.90;;;;;;4989167;28;20030;-80
2023/09/12 04:05:26;;;;;;;26.02;15.52;;;19.40;99.90;;;;;;4988401;28;20018;-81
2023/09/12 04:07:55;;;;;;;26.70;16.40;;;19.40;99.90;;;;;;4985064;28;20023;-81
2023/09/12 04:10:21;;;;;;;34.45;17.85;;;19.40;99.90;;;;;;4987742;28;20022;-81
2023/09/12 04:12:46;;;;;;;28.95;17.90;;;19.40;99.90;;;;;;4987987;28;20026;-80
2023/09/12 04:15:12;;;;;;;25.65;17.15;;;19.40;99.90;;;;;;4987729;28;20026;-80
2023/09/12 04:17:37;;;;;;;30.20;17.45;;;19.40;99.90;;;;;;4992627;28;20042;-80
2023/09/12 04:20:06;;;;;;;29.13;15.25;;;19.30;99.90;;;;;;4986709;28;20070;-80
2023/09/12 04:22:32;;;;;;;27.10;16.00;;;19.30;99.90;;;;;;4990089;28;20126;-81
2023/09/12 04:24:58;;;;;;;25.73;15.80;;;19.30;99.90;;;;;;4989722;28;20049;-80
2023/09/12 04:27:23;;;;;;;28.55;16.05;;;19.30;99.90;;;;;;4988269;28;20467;-80
2023/09/12 04:29:49;;;;;;;31.15;16.35;;;19.30;99.90;;;;;;4987997;28;20031;-80
2023/09/12 04:32:16;;;;;;;24.55;17.13;;;19.30;99.90;;;;;;4987222;28;20034;-80
2023/09/12 04:34:43;;;;;;;28.77;18.70;;;19.20;99.90;;;;;;4989482;28;20098;-80
2023/09/12 04:37:08;;;;;;;31.38;18.05;;;19.30;99.90;;;;;;4989324;28;20031;-80
2023/09/12 04:39:36;;;;;;;27.13;17.42;;;19.20;99.90;;;;;;4989343;28;20065;-80
2023/09/12 04:42:04;;;;;;;28.38;16.02;;;19.20;99.90;;;;;;4989602;28;20069;-80
2023/09/12 04:44:39;;;;;;;31.40;18.20;;;19.20;99.90;;;;;;4983512;28;20065;-80
2023/09/12 04:47:04;;;;;;;38.75;18.70;;;19.20;99.90;;;;;;4989508;28;20378;-80
2023/09/12 04:49:30;;;;;;;29.65;18.08;;;19.20;99.90;;;;;;4990922;28;20032;-81
2023/09/12 04:51:55;;;;;;;26.23;16.65;;;19.20;99.90;;;;;;4986161;28;20041;-80
2023/09/12 04:54:21;;;;;;;32.33;17.10;;;19.20;99.90;;;;;;4987960;28;20019;-80
2023/09/12 04:56:47;;;;;;;31.08;17.60;;;19.10;99.90;;;;;;4987090;28;20364;-80
2023/09/12 04:59:13;;;;;;;31.92;18.23;;;19.20;99.90;;;;;;4988556;28;20073;-80
2023/09/12 05:01:40;;;;;;;28.02;17.25;;;19.20;99.90;;;;;;4987243;28;20058;-80
2023/09/12 05:04:06;;;;;;;29.50;16.38;;;19.20;99.90;;;;;;4984932;28;20030;-80
2023/09/12 05:06:34;;;;;;;27.98;16.77;;;19.30;99.90;;;;;;4988804;28;20415;-80
2023/09/12 05:08:59;;;;;;;34.92;17.38;;;19.30;99.90;;;;;;4987190;28;20033;-80
2023/09/12 05:11:25;;;;;;;28.60;16.95;;;19.30;99.90;;;;;;4985247;28;20034;-82
2023/09/12 05:13:51;;;;;;;28.23;17.23;;;19.30;99.90;;;;;;4989669;28;20121;-81
2023/09/12 05:16:17;;;;;;;29.42;16.38;;;19.30;99.90;;;;;;4986728;28;20353;-81
2023/09/12 05:18:43;;;;;;;29.67;17.48;;;19.40;99.90;;;;;;4989148;28;20333;-81
2023/09/12 05:21:08;;;;;;;34.47;18.25;;;19.40;99.90;;;;;;4987205;28;20088;-79
2023/09/12 05:23:34;;;;;;;39.03;19.83;;;19.40;99.90;;;;;;4978927;28;20034;-80
2023/09/12 05:26:00;;;;;;;26.77;17.40;;;19.30;99.90;;;;;;4987780;28;20076;-82
2023/09/12 05:28:26;;;;;;;27.33;18.05;;;19.40;99.90;;;;;;4982531;28;20026;-79
2023/09/12 05:30:52;;;;;;;32.08;16.92;;;19.50;99.90;;;;;;4986738;28;20030;-81
2023/09/12 05:33:17;;;;;;;30.27;17.92;;;19.50;99.90;;;;;;4986113;28;20462;-81
2023/09/12 05:35:46;;;;;;;35.38;16.95;;;19.40;99.90;;;;;;4988393;28;20197;-81
2023/09/12 05:38:11;;;;;;;32.03;17.33;;;19.40;99.90;;;;;;4988287;28;20030;-80
2023/09/12 05:40:37;;;;;;;29.75;18.25;;;19.40;99.90;;;;;;4987598;28;20045;-80
2023/09/12 05:43:03;;;;;;;26.52;17.60;;;19.50;99.90;;;;;;4987306;28;20026;-80
2023/09/12 05:45:32;;;;;;;29.48;16.88;;;19.40;99.90;;;;;;4987499;28;20066;-80
2023/09/12 05:48:03;;;;;;;31.42;17.67;;;19.50;99.90;;;;;;4987095;28;20022;-80
2023/09/12 05:50:28;;;;;;;32.05;18.45;;;19.50;99.90;;;;;;4987644;28;20101;-79
2023/09/12 05:52:54;;;;;;;30.85;17.77;;;19.60;99.90;;;;;;4986820;28;20472;-82
2023/09/12 05:55:19;;;;;;;27.83;18.42;;;19.60;99.90;;;;;;4986338;28;20411;-80
2023/09/12 05:57:47;;;;;;;34.35;18.60;;;19.50;99.90;;;;;;4988102;28;20442;-81
2023/09/12 06:00:15;;;;;;;29.30;18.63;;;19.50;99.90;;;;;;4988156;28;20034;-81
2023/09/12 06:02:42;;;;;;;27.88;18.52;;;19.50;99.90;;;;;;4989683;28;20028;-80
2023/09/12 06:05:08;;;;;;;28.20;18.90;;;19.40;99.90;;;;;;4999866;28;20054;-80
2023/09/12 06:07:34;;;;;;;39.00;19.67;;;19.50;99.90;;;;;;5004727;28;20018;-78
2023/09/12 06:10:00;;;;;;;43.75;21.02;;;19.60;99.90;;;;;;5011088;28;20041;-80
2023/09/12 06:12:25;;;;;;;33.50;21.88;;;19.60;99.90;;;;;;5002254;28;20056;-81
2023/09/12 06:14:53;;;;;;;35.08;19.40;;;19.60;99.90;;;;;;4987911;28;20026;-80
2023/09/12 06:17:18;;;;;;;31.63;20.50;;;19.70;99.90;;;;;;4988473;28;20564;-82
2023/09/12 06:19:44;;;;;;;34.90;18.90;;;19.70;99.90;;;;;;4991016;28;20023;-79
2023/09/12 06:22:10;;;;;;;40.45;21.58;;;19.70;99.90;;;;;;4986136;28;20031;-79
2023/09/12 06:24:35;;;;;;;29.25;19.20;;;19.60;99.90;;;;;;4988512;28;20088;-81
2023/09/12 06:27:01;;;;;;;38.05;20.85;;;19.60;99.90;;;;;;4984839;28;20025;-81
2023/09/12 06:29:26;;;;;;;34.03;20.05;;;19.60;99.90;;;;;;4988065;28;20486;-81
2023/09/12 06:31:52;;;;;;;36.88;19.70;;;19.60;99.90;;;;;;4985141;28;20058;-80
2023/09/12 06:34:18;;;;;;;37.92;20.63;;;19.60;99.90;;;;;;4984389;28;20030;-80
2023/09/12 06:36:45;;;;;;;30.40;18.45;;;19.50;99.90;;;;;;4986583;28;20083;-79
2023/09/12 06:39:10;;;;;;;33.53;20.30;;;19.60;99.90;;;;;;4981294;28;20029;-79
2023/09/12 06:41:36;;;;;;;35.15;20.25;;;19.60;99.90;;;;;;4986122;28;20018;-79
2023/09/12 06:44:04;;;;;;;38.35;21.38;;;19.60;99.90;;;;;;4985687;28;20088;-80
2023/09/12 06:46:29;;;;;;;38.47;21.55;;;19.50;99.90;;;;;;4985053;28;20386;-79
2023/09/12 06:48:56;;;;;;;44.70;20.85;;;19.60;99.90;;;;;;4985822;28;20084;-79
2023/09/12 06:51:25;;;;;;;40.78;19.88;;;19.60;99.90;;;;;;4984030;28;20221;-79
2023/09/12 06:53:51;;;;;;;32.45;22.65;;;19.60;99.90;;;;;;4982800;28;20092;-79
2023/09/12 06:56:17;;;;;;;42.83;24.73;;;19.70;99.90;;;;;;4988515;28;20090;-79
2023/09/12 06:58:42;;;;;;;33.55;21.15;;;19.70;99.90;;;;;;4989422;28;20519;-81
2023/09/12 07:01:08;;;;;;;39.28;23.20;;;19.70;99.90;;;;;;4984452;28;20121;-81
2023/09/12 07:03:35;;;;;;;48.60;19.77;;;19.70;99.90;;;;;;4984691;28;20318;-80
2023/09/12 07:06:03;;;;;;;43.40;21.98;;;19.80;99.90;;;;;;4983583;28;20553;-79
2023/09/12 07:08:30;;;;;;;34.92;20.90;;;19.80;99.90;;;;;;4977917;28;20046;-79
2023/09/12 07:10:57;;;;;;;39.15;23.63;;;19.90;99.90;;;;;;4992648;28;20503;-80
2023/09/12 07:13:26;;;;;;;38.92;23.27;;;19.90;99.90;;;;;;4987634;28;20359;-80
2023/09/12 07:15:51;;;;;;;44.17;23.15;;;19.90;99.90;;;;;;4992507;28;20022;-81
2023/09/12 07:18:18;;;;;;;40.80;23.40;;;19.90;99.90;;;;;;4991504;28;20082;-80
2023/09/12 07:20:45;;;;;;;42.38;22.65;;;19.90;99.90;;;;;;4992078;28;20022;-80
2023/09/12 07:23:10;;;;;;;42.30;21.50;;;19.90;99.90;;;;;;4992276;28;20109;-80
2023/09/12 07:25:40;;;;;;;43.47;24.48;;;19.90;99.90;;;;;;4989431;28;20110;-79
2023/09/12 07:28:09;;;;;;;36.17;23.10;;;20.00;99.90;;;;;;4976227;28;20562;-81
2023/09/12 07:30:36;;;;;;;46.22;23.83;;;20.00;99.90;;;;;;4980907;28;20394;-79
2023/09/12 07:33:04;;;;;;;38.30;23.88;;;19.90;99.90;;;;;;4989525;28;20101;-79
2023/09/12 07:35:30;;;;;;;42.33;21.02;;;19.90;99.90;;;;;;4989142;28;20073;-80
2023/09/12 07:37:56;;;;;;;33.75;20.58;;;19.90;99.90;;;;;;4992122;28;20042;-81
2023/09/12 07:40:22;;;;;;;42.00;21.27;;;19.90;99.90;;;;;;4992217;28;20054;-79
2023/09/12 07:42:50;;;;;;;40.42;20.67;;;19.90;99.90;;;;;;4990579;28;20106;-80
2023/09/12 07:45:15;;;;;;;32.83;21.13;;;19.90;99.90;;;;;;4990102;28;20088;-79
2023/09/12 07:47:41;;;;;;;36.80;20.45;;;19.90;99.90;;;;;;4990079;28;20474;-79
2023/09/12 07:50:07;;;;;;;42.13;21.85;;;19.80;99.90;;;;;;4990987;28;20462;-79
2023/09/12 07:52:33;;;;;;;36.95;21.42;;;19.80;99.90;;;;;;4990116;28;20057;-80
2023/09/12 07:55:03;;;;;;;33.80;21.50;;;19.90;99.90;;;;;;4992062;28;20069;-79
2023/09/12 07:57:29;;;;;;;37.97;23.52;;;19.90;99.90;;;;;;4981946;28;20041;-79
2023/09/12 07:59:56;;;;;;;36.35;23.17;;;20.00;99.90;;;;;;4989829;28;20632;-79
2023/09/12 08:02:23;;;;;;;37.88;23.67;;;20.00;99.90;;;;;;4990534;28;20026;-79
2023/09/12 08:04:50;;;;;;;31.55;21.17;;;20.00;99.90;;;;;;4990596;28;20065;-79
2023/09/12 08:07:19;;;;;;;33.97;22.88;;;20.10;99.90;;;;;;4990970;28;20021;-82
2023/09/12 08:09:59;;;;;;;38.15;22.58;;;20.10;99.90;;;;;;4990867;28;20498;-81
2023/09/12 08:12:27;;;;;;;34.58;22.10;;;20.20;99.90;;;;;;4997305;28;20023;-82
2023/09/12 08:14:56;;;;;;;38.33;22.30;;;20.30;99.90;;;;;;4990646;28;20026;-79
2023/09/12 08:17:22;;;;;;;29.55;21.38;;;20.40;99.90;;;;;;4990255;28;20026;-79
2023/09/12 08:19:48;;;;;;;30.70;21.30;;;20.40;99.90;;;;;;4991124;28;20033;-80
2023/09/12 08:22:14;;;;;;;37.65;22.77;;;20.50;99.90;;;;;;4990228;28;20045;-80
2023/09/12 08:24:39;;;;;;;31.88;21.60;;;20.60;99.90;;;;;;4992388;28;20022;-81
2023/09/12 08:27:09;;;;;;;34.50;20.55;;;20.70;99.90;;;;;;4990769;28;20037;-81
2023/09/12 08:29:35;;;;;;;33.97;20.95;;;20.60;99.90;;;;;;4991445;28;20041;-80
2023/09/12 08:32:02;;;;;;;32.85;21.48;;;20.70;99.90;;;;;;4990815;28;20479;-80
2023/09/12 08:34:28;;;;;;;29.52;19.55;;;20.70;99.90;;;;;;4991561;28;20018;-79
2023/09/12 08:36:54;;;;;;;32.67;20.85;;;20.70;99.90;;;;;;4989075;28;20018;-80
2023/09/12 08:39:39;;;;;;;31.95;22.35;;;20.80;99.90;;;;;;4989119;28;20093;-80
2023/09/12 08:42:06;;;;;;;33.90;21.52;;;20.80;99.90;;;;;;4990469;28;20093;-80
2023/09/12 08:44:31;;;;;;;29.00;19.63;;;20.70;99.90;;;;;;4986849;28;20114;-80
2023/09/12 08:46:58;;;;;;;28.20;19.58;;;20.70;99.90;;;;;;4990917;28;20113;-79
2023/09/12 08:49:23;;;;;;;28.15;18.92;;;20.70;99.90;;;;;;4987728;28;20033;-81
2023/09/12 08:51:49;;;;;;;26.20;16.92;;;20.60;99.90;;;;;;4990413;28;20022;-81
2023/09/12 08:54:15;;;;;;;31.75;19.23;;;20.60;99.90;;;;;;4989550;28;20027;-80
2023/09/12 08:56:44;;;;;;;33.70;19.40;;;20.70;99.90;;;;;;4991304;28;20030;-80
2023/09/12 08:59:11;;;;;;;23.67;17.27;;;20.80;99.90;;;;;;4988301;28;20022;-80
2023/09/12 09:01:38;;;;;;;22.60;15.73;;;20.80;99.90;;;;;;4994850;28;20022;-82
2023/09/12 09:04:04;;;;;;;25.08;16.35;;;20.90;99.90;;;;;;4990295;28;20032;-81
2023/09/12 09:06:37;;;;;;;25.35;16.00;;;21.10;99.90;;;;;;4987993;28;20572;-81
2023/09/12 09:09:05;;;;;;;22.90;16.40;;;21.30;99.90;;;;;;4987053;28;20060;-81
2023/09/12 09:11:30;;;;;;;22.60;16.15;;;21.50;99.90;;;;;;4990176;28;20491;-82
2023/09/12 09:13:58;;;;;;;19.65;14.98;;;21.50;99.90;;;;;;4990069;28;20033;-81
2023/09/12 09:16:24;;;;;;;21.80;15.38;;;21.50;99.90;;;;;;4989524;28;20494;-80
2023/09/12 09:18:54;;;;;;;20.17;13.73;;;21.40;99.90;;;;;;4991406;28;20029;-82
2023/09/12 09:21:25;;;;;;;17.27;13.25;;;21.40;99.90;;;;;;4980261;28;20176;-81
2023/09/12 09:23:54;;;;;;;16.85;12.25;;;21.40;99.90;;;;;;4981262;28;20023;-80
2023/09/12 09:26:21;;;;;;;16.40;12.10;;;21.60;99.90;;;;;;4987460;28;20027;-80
2023/09/12 09:29:03;;;;;;;15.45;12.30;;;21.60;99.90;;;;;;4985862;28;20072;-81
2023/09/12 09:31:28;;;;;;;20.00;12.73;;;21.60;99.90;;;;;;4989565;28;20026;-81
2023/09/12 09:33:55;;;;;;;18.38;13.60;;;21.50;99.90;;;;;;4987288;28;20034;-77
2023/09/12 09:36:21;;;;;;;22.63;13.73;;;21.50;99.90;;;;;;4988994;28;20498;-84
2023/09/12 09:38:46;;;;;;;20.13;13.25;;;21.40;99.90;;;;;;4975956;28;20054;-81
2023/09/12 09:41:12;;;;;;;16.05;13.35;;;21.40;99.90;;;;;;4988271;28;20398;-80
2023/09/12 09:43:38;;;;;;;17.58;12.18;;;21.40;99.90;;;;;;4987369;28;20034;-80
2023/09/12 09:46:03;;;;;;;18.52;13.10;;;21.40;99.90;;;;;;4985735;28;20030;-80
2023/09/12 09:48:32;;;;;;;14.55;11.80;;;21.40;99.90;;;;;;4987901;28;20022;-81
2023/09/12 09:51:02;;;;;;;12.98;10.50;;;21.50;99.90;;;;;;4986953;28;20105;-79
2023/09/12 09:53:32;;;;;;;16.42;13.07;;;21.50;99.90;;;;;;4987412;28;20049;-81
2023/09/12 09:56:10;;;;;;;22.88;15.57;;;21.50;99.90;;;;;;4986010;28;20034;-81
2023/09/12 09:58:37;;;;;;;24.02;16.80;;;21.50;99.90;;;;;;4986845;28;20033;-80
2023/09/12 10:01:07;;;;;;;23.08;16.75;;;21.50;99.90;;;;;;4988102;28;20019;-80
2023/09/12 10:03:35;;;;;;;26.73;17.35;;;21.60;99.90;;;;;;4985108;28;20145;-80
2023/09/12 10:06:04;;;;;;;23.98;17.52;;;21.70;99.90;;;;;;4988939;28;20030;-81
2023/09/12 10:08:31;;;;;;;24.77;17.67;;;21.80;99.90;;;;;;4983895;28;20018;-81
2023/09/12 10:10:59;;;;;;;26.80;18.33;;;21.90;99.90;;;;;;4987995;28;20034;-80
2023/09/12 10:13:32;;;;;;;29.52;19.27;;;22.00;99.90;;;;;;4987140;28;20014;-81
2023/09/12 10:15:58;;;;;;;;;;;22.20;99.90;;;;;;4986893;28;20030;-81
2023/09/12 10:18:26;;;;;;;27.02;18.58;;;22.60;99.90;;;;;;4987730;28;19949;-82
2023/09/12 10:20:55;;;;;;;29.15;20.60;;;22.70;99.90;;;;;;4987767;28;20101;-79
2023/09/12 10:23:37;;;;;;;30.52;18.77;;;22.80;99.90;;;;;;4988050;28;20076;-79
2023/09/12 10:26:04;;;;;;;26.50;19.03;;;22.80;99.90;;;;;;4984410;28;20181;-80
2023/09/12 10:28:30;;;;;;;29.92;20.13;;;22.90;99.90;;;;;;4990081;28;20019;-80
2023/09/12 10:30:59;;;;;;;27.15;20.02;;;23.00;99.90;;;;;;4994085;28;20104;-78
2023/09/12 10:33:31;;;;;;;28.23;18.23;;;23.30;99.90;;;;;;4987806;28;20026;-79
2023/09/12 10:35:58;;;;;;;29.15;17.30;;;23.50;99.90;;;;;;4991430;28;20030;-81
2023/09/12 10:38:26;;;;;;;26.10;17.25;;;23.70;99.90;;;;;;5000186;28;20026;-80
2023/09/12 10:40:54;;;;;;;26.60;16.77;;;24.00;99.90;;;;;;5006922;28;20042;-80
2023/09/12 10:43:21;;;;;;;25.20;16.10;;;24.30;99.90;;;;;;5013557;28;20057;-81
2023/09/12 10:45:48;;;;;;;25.08;16.02;;;24.50;99.90;;;;;;4986227;28;20033;-80
2023/09/12 10:48:14;;;;;;;22.30;16.00;;;24.70;99.90;;;;;;4991609;28;20019;-80
2023/09/12 10:50:40;;;;;;;20.92;16.13;;;24.60;99.90;;;;;;4985675;28;20423;-81
2023/09/12 10:53:13;;;;;;;27.67;17.08;;;24.70;99.90;;;;;;4986658;28;20585;-80
2023/09/12 10:55:40;;;;;;;25.48;16.38;;;24.80;99.90;;;;;;4987324;28;20027;-79
2023/09/12 10:58:10;;;;;;;19.88;15.68;;;25.00;99.90;;;;;;4985174;28;20104;-79
2023/09/12 11:00:38;;;;;;;21.52;15.77;;;25.00;99.90;;;;;;4985715;28;20387;-78
2023/09/12 11:03:29;;;;;;;26.90;15.30;;;25.10;99.90;;;;;;4985136;28;20061;-79
2023/09/12 11:05:56;;;;;;;22.35;14.50;;;25.10;99.90;;;;;;4979840;28;20141;-79
2023/09/12 11:08:22;;;;;;;17.80;13.55;;;25.20;99.90;;;;;;4984130;28;20025;-79
2023/09/12 11:11:18;;;;;;;20.15;13.73;;;25.20;99.90;;;;;;4977570;28;20093;-79
2023/09/12 11:13:45;;;;;;;491.27;283.40;;;25.10;99.90;;;;;;4987088;28;20081;-79
2023/09/12 11:16:13;;;;;;;12.65;9.50;;;25.50;99.90;;;;;;4983791;28;20441;-77
2023/09/12 11:19:14;;;;;;;15.43;10.25;;;25.70;99.90;;;;;;4984970;28;20027;-77
2023/09/12 11:21:41;;;;;;;11.50;8.90;;;25.80;99.90;;;;;;4977085;28;20482;-77
2023/09/12 11:24:07;;;;;;;13.48;10.18;;;25.70;99.90;;;;;;4983696;28;20088;-77
2023/09/12 11:26:32;;;;;;;14.85;11.27;;;25.60;99.90;;;;;;4985887;28;20445;-77
2023/09/12 11:29:13;;;;;;;9.85;8.80;;;25.70;99.90;;;;;;4984304;28;20062;-76
2023/09/12 11:31:42;;;;;;;10.32;8.20;;;25.90;99.90;;;;;;4984447;28;20029;-76
2023/09/12 11:34:10;;;;;;;8.50;6.70;;;25.90;99.90;;;;;;4976963;28;20138;-76
2023/09/12 11:36:42;;;;;;;9.82;7.57;;;26.20;99.90;;;;;;4984123;28;20098;-76
2023/09/12 11:39:32;;;;;;;10.23;7.43;;;26.30;99.90;;;;;;4983391;28;20078;-76
2023/09/12 11:42:00;;;;;;;11.52;8.63;;;26.20;99.90;;;;;;4975015;28;20034;-78
2023/09/12 11:44:26;;;;;;;12.75;9.02;;;26.30;99.90;;;;;;4975001;28;20022;-76
2023/09/12 11:46:52;;;;;;;11.40;8.48;;;26.40;99.90;;;;;;4984028;28;20125;-76
2023/09/12 11:49:19;;;;;;;9.80;8.55;;;26.30;99.90;;;;;;4983311;28;20058;-79
2023/09/12 11:51:53;;;;;;;8.85;7.00;;;26.50;99.90;;;;;;4983667;28;20019;-79
2023/09/12 11:54:21;;;;;;;10.25;7.68;;;26.50;99.90;;;;;;4983168;28;20430;-78
2023/09/12 11:56:48;;;;;;;10.05;8.73;;;26.60;99.90;;;;;;4986186;28;20498;-78
2023/09/12 11:59:14;;;;;;;11.43;8.95;;;26.70;99.90;;;;;;4986875;28;20024;-79
2023/09/12 12:01:41;;;;;;;11.60;8.90;;;26.80;99.90;;;;;;4990198;28;20018;-78
2023/09/12 12:04:07;;;;;;;11.10;8.40;;;26.80;99.90;;;;;;4990043;28;20106;-79
2023/09/12 12:06:35;;;;;;;11.00;8.15;;;26.80;99.90;;;;;;4990664;28;20110;-78
2023/09/12 12:09:01;;;;;;;10.48;8.45;;;26.60;99.90;;;;;;4989294;28;20010;-79
2023/09/12 12:11:31;;;;;;;11.07;8.43;;;26.60;99.90;;;;;;4988915;28;20030;-78
2023/09/12 12:13:56;;;;;;;9.18;7.88;;;26.60;99.90;;;;;;4990012;28;20030;-78
2023/09/12 12:16:22;;;;;;;9.15;7.88;;;26.80;99.90;;;;;;4985476;28;20559;-79
2023/09/12 12:18:48;;;;;;;10.93;8.05;;;26.80;99.90;;;;;;4986302;28;20034;-79
2023/09/12 12:21:14;;;;;;;9.32;7.65;;;27.00;99.90;;;;;;4988761;28;20084;-78
2023/09/12 12:23:40;;;;;;;9.90;7.78;;;27.20;99.90;;;;;;4989301;28;20035;-79
2023/09/12 12:26:11;;;;;;;12.13;9.15;;;27.40;99.90;;;;;;4988073;28;20029;-79
2023/09/12 12:28:37;;;;;;;13.48;9.48;;;27.50;99.90;;;;;;4984731;28;20019;-79
2023/09/12 12:31:04;;;;;;;11.40;8.18;;;27.90;99.90;;;;;;4985468;28;20070;-79